sensor_id;sensor_type;location;lat;lon;timestamp;P1;durP1;ratioP1;P2;durP2;ratioP2
19566;SDS011;9930;49.240;8.548;2023-12-29T00:02:17;4.97;;;4.47;;
19566;SDS011;9930;49.240;8.548;2023-12-29T00:04:52;4.63;;;4.22;;
19566;SDS011;9930;49.240;8.548;2023-12-29T00:07:18;4.07;;;3.78;;
19566;SDS011;9930;49.240;8.548;2023-12-29T00:09:52;4.53;;;4.13;;
19566;SDS011;9930;49.240;8.548;2023-12-29T00:12:24;4.90;;;4.50;;
19566;SDS011;9930;49.240;8.548;2023-12-29T00:14:53;4.32;;;3.95;;
19566;SDS011;9930;49.240;8.548;2023-12-29T00:17:24;4.35;;;3.95;;
19566;SDS011;9930;49.240;8.548;2023-12-29T00:19:53;4.55;;;4.15;;
19566;SDS011;9930;49.240;8.548;2023-12-29T00:22:21;4.78;;;4.38;;
19566;SDS011;9930;49.240;8.548;2023-12-29T00:24:52;4.85;;;4.45;;
19566;SDS011;9930;49.240;8.548;2023-12-29T00:27:18;5.03;;;4.63;;
19566;SDS011;9930;49.240;8.548;2023-12-29T00:29:54;4.82;;;4.32;;
19566;SDS011;9930;49.240;8.548;2023-12-29T00:32:20;4.95;;;4.45;;
19566;SDS011;9930;49.240;8.548;2023-12-29T00:34:46;4.63;;;4.22;;
19566;SDS011;9930;49.240;8.548;2023-12-29T00:37:15;5.10;;;4.70;;
19566;SDS011;9930;49.240;8.548;2023-12-29T00:39:45;5.00;;;4.60;;
19566;SDS011;9930;49.240;8.548;2023-12-29T00:42:10;5.35;;;4.78;;
19566;SDS011;9930;49.240;8.548;2023-12-29T00:44:38;5.93;;;5.10;;
19566;SDS011;9930;49.240;8.548;2023-12-29T00:47:04;5.18;;;4.68;;
19566;SDS011;9930;49.240;8.548;2023-12-29T00:49:30;4.97;;;4.32;;
19566;SDS011;9930;49.240;8.548;2023-12-29T00:51:55;4.70;;;4.30;;
19566;SDS011;9930;49.240;8.548;2023-12-29T00:54:21;4.50;;;4.10;;
19566;SDS011;9930;49.240;8.548;2023-12-29T00:56:52;4.88;;;4.47;;
19566;SDS011;9930;49.240;8.548;2023-12-29T00:59:20;4.75;;;4.32;;
19566;SDS011;9930;49.240;8.548;2023-12-29T01:01:46;5.25;;;4.75;;
19566;SDS011;9930;49.240;8.548;2023-12-29T01:04:12;4.97;;;4.55;;
19566;SDS011;9930;49.240;8.548;2023-12-29T01:06:40;4.63;;;4.22;;
19566;SDS011;9930;49.240;8.548;2023-12-29T01:09:06;4.75;;;4.35;;
19566;SDS011;9930;49.240;8.548;2023-12-29T01:11:34;4.50;;;4.10;;
19566;SDS011;9930;49.240;8.548;2023-12-29T01:13:59;4.50;;;4.18;;
19566;SDS011;9930;49.240;8.548;2023-12-29T01:16:27;4.47;;;4.07;;
19566;SDS011;9930;49.240;8.548;2023-12-29T01:18:55;4.85;;;4.45;;
19566;SDS011;9930;49.240;8.548;2023-12-29T01:21:21;5.28;;;4.88;;
19566;SDS011;9930;49.240;8.548;2023-12-29T01:23:53;4.70;;;4.30;;
19566;SDS011;9930;49.240;8.548;2023-12-29T01:26:19;4.30;;;3.97;;
19566;SDS011;9930;49.240;8.548;2023-12-29T01:28:45;4.85;;;4.45;;
19566;SDS011;9930;49.240;8.548;2023-12-29T01:31:11;5.15;;;4.57;;
19566;SDS011;9930;49.240;8.548;2023-12-29T01:33:38;5.13;;;4.63;;
19566;SDS011;9930;49.240;8.548;2023-12-29T01:36:06;4.82;;;4.43;;
19566;SDS011;9930;49.240;8.548;2023-12-29T01:38:34;5.30;;;4.55;;
19566;SDS011;9930;49.240;8.548;2023-12-29T01:41:01;5.28;;;4.40;;
19566;SDS011;9930;49.240;8.548;2023-12-29T01:43:29;4.80;;;4.40;;
19566;SDS011;9930;49.240;8.548;2023-12-29T01:45:57;5.10;;;4.68;;
19566;SDS011;9930;49.240;8.548;2023-12-29T01:48:23;4.80;;;4.13;;
19566;SDS011;9930;49.240;8.548;2023-12-29T01:50:53;5.07;;;4.38;;
19566;SDS011;9930;49.240;8.548;2023-12-29T01:53:20;4.82;;;4.40;;
19566;SDS011;9930;49.240;8.548;2023-12-29T01:55:47;4.88;;;4.45;;
19566;SDS011;9930;49.240;8.548;2023-12-29T01:58:20;4.10;;;3.80;;
19566;SDS011;9930;49.240;8.548;2023-12-29T02:00:53;4.38;;;4.00;;
19566;SDS011;9930;49.240;8.548;2023-12-29T02:03:25;4.18;;;3.78;;
19566;SDS011;9930;49.240;8.548;2023-12-29T02:05:54;4.53;;;4.13;;
19566;SDS011;9930;49.240;8.548;2023-12-29T02:08:26;4.47;;;4.07;;
19566;SDS011;9930;49.240;8.548;2023-12-29T02:10:55;4.22;;;3.83;;
19566;SDS011;9930;49.240;8.548;2023-12-29T02:13:24;4.30;;;4.00;;
19566;SDS011;9930;49.240;8.548;2023-12-29T02:15:50;4.40;;;4.00;;
19566;SDS011;9930;49.240;8.548;2023-12-29T02:18:24;4.40;;;4.00;;
19566;SDS011;9930;49.240;8.548;2023-12-29T02:20:56;4.40;;;4.00;;
19566;SDS011;9930;49.240;8.548;2023-12-29T02:23:24;4.40;;;4.00;;
19566;SDS011;9930;49.240;8.548;2023-12-29T02:25:53;4.82;;;4.32;;
19566;SDS011;9930;49.240;8.548;2023-12-29T02:28:28;4.35;;;3.97;;
19566;SDS011;9930;49.240;8.548;2023-12-29T02:33:37;4.25;;;3.85;;
19566;SDS011;9930;49.240;8.548;2023-12-29T02:36:06;4.32;;;3.97;;
19566;SDS011;9930;49.240;8.548;2023-12-29T02:38:35;4.28;;;3.95;;
19566;SDS011;9930;49.240;8.548;2023-12-29T02:41:01;4.10;;;3.80;;
19566;SDS011;9930;49.240;8.548;2023-12-29T02:43:27;4.20;;;3.90;;
19566;SDS011;9930;49.240;8.548;2023-12-29T02:45:53;4.25;;;3.95;;
19566;SDS011;9930;49.240;8.548;2023-12-29T02:48:18;4.10;;;3.80;;
19566;SDS011;9930;49.240;8.548;2023-12-29T02:50:47;4.20;;;3.90;;
19566;SDS011;9930;49.240;8.548;2023-12-29T02:53:13;4.45;;;4.05;;
19566;SDS011;9930;49.240;8.548;2023-12-29T02:55:39;4.05;;;3.75;;
19566;SDS011;9930;49.240;8.548;2023-12-29T02:58:04;4.40;;;4.00;;
19566;SDS011;9930;49.240;8.548;2023-12-29T03:00:30;4.68;;;4.15;;
19566;SDS011;9930;49.240;8.548;2023-12-29T03:02:58;4.22;;;3.80;;
19566;SDS011;9930;49.240;8.548;2023-12-29T03:05:26;4.40;;;4.03;;
19566;SDS011;9930;49.240;8.548;2023-12-29T03:07:54;4.72;;;4.25;;
19566;SDS011;9930;49.240;8.548;2023-12-29T03:10:20;4.63;;;4.22;;
19566;SDS011;9930;49.240;8.548;2023-12-29T03:12:46;4.45;;;4.05;;
19566;SDS011;9930;49.240;8.548;2023-12-29T03:15:12;4.97;;;4.57;;
19566;SDS011;9930;49.240;8.548;2023-12-29T03:17:38;4.75;;;4.35;;
19566;SDS011;9930;49.240;8.548;2023-12-29T03:20:04;6.05;;;4.55;;
19566;SDS011;9930;49.240;8.548;2023-12-29T03:22:30;5.13;;;4.63;;
19566;SDS011;9930;49.240;8.548;2023-12-29T03:24:58;4.88;;;4.47;;
19566;SDS011;9930;49.240;8.548;2023-12-29T03:27:24;5.13;;;4.72;;
19566;SDS011;9930;49.240;8.548;2023-12-29T03:29:50;4.65;;;4.25;;
19566;SDS011;9930;49.240;8.548;2023-12-29T03:32:21;4.93;;;4.45;;
19566;SDS011;9930;49.240;8.548;2023-12-29T03:34:47;5.00;;;4.50;;
19566;SDS011;9930;49.240;8.548;2023-12-29T03:37:18;5.43;;;4.93;;
19566;SDS011;9930;49.240;8.548;2023-12-29T03:39:51;5.07;;;4.40;;
19566;SDS011;9930;49.240;8.548;2023-12-29T03:42:17;5.05;;;4.65;;
19566;SDS011;9930;49.240;8.548;2023-12-29T03:44:42;4.43;;;4.03;;
19566;SDS011;9930;49.240;8.548;2023-12-29T03:49:35;4.78;;;4.38;;
19566;SDS011;9930;49.240;8.548;2023-12-29T03:52:01;4.93;;;4.53;;
19566;SDS011;9930;49.240;8.548;2023-12-29T03:54:29;4.22;;;3.83;;
19566;SDS011;9930;49.240;8.548;2023-12-29T03:56:57;4.30;;;3.45;;
19566;SDS011;9930;49.240;8.548;2023-12-29T03:59:25;4.40;;;4.00;;
19566;SDS011;9930;49.240;8.548;2023-12-29T04:01:54;4.63;;;3.88;;
19566;SDS011;9930;49.240;8.548;2023-12-29T04:04:22;4.40;;;3.75;;
19566;SDS011;9930;49.240;8.548;2023-12-29T04:06:48;4.65;;;4.25;;
19566;SDS011;9930;49.240;8.548;2023-12-29T04:09:23;3.97;;;3.67;;
19566;SDS011;9930;49.240;8.548;2023-12-29T04:11:53;3.70;;;3.40;;
19566;SDS011;9930;49.240;8.548;2023-12-29T04:14:24;3.80;;;3.50;;
19566;SDS011;9930;49.240;8.548;2023-12-29T04:16:53;4.38;;;3.55;;
19566;SDS011;9930;49.240;8.548;2023-12-29T04:19:28;3.75;;;3.45;;
19566;SDS011;9930;49.240;8.548;2023-12-29T04:21:56;3.65;;;3.30;;
19566;SDS011;9930;49.240;8.548;2023-12-29T04:24:24;4.07;;;3.67;;
19566;SDS011;9930;49.240;8.548;2023-12-29T04:26:53;3.72;;;3.42;;
19566;SDS011;9930;49.240;8.548;2023-12-29T04:29:25;3.50;;;3.22;;
19566;SDS011;9930;49.240;8.548;2023-12-29T04:31:55;3.25;;;2.95;;
19566;SDS011;9930;49.240;8.548;2023-12-29T04:34:25;3.45;;;3.20;;
19566;SDS011;9930;49.240;8.548;2023-12-29T04:36:57;3.97;;;3.05;;
19566;SDS011;9930;49.240;8.548;2023-12-29T04:39:25;3.22;;;2.97;;
19566;SDS011;9930;49.240;8.548;2023-12-29T04:41:57;3.20;;;2.90;;
19566;SDS011;9930;49.240;8.548;2023-12-29T04:44:25;3.25;;;2.95;;
19566;SDS011;9930;49.240;8.548;2023-12-29T04:46:51;3.33;;;3.03;;
19566;SDS011;9930;49.240;8.548;2023-12-29T04:49:17;3.22;;;2.92;;
19566;SDS011;9930;49.240;8.548;2023-12-29T04:51:42;3.17;;;2.88;;
19566;SDS011;9930;49.240;8.548;2023-12-29T04:54:13;2.80;;;2.60;;
19566;SDS011;9930;49.240;8.548;2023-12-29T04:56:39;2.78;;;2.58;;
19566;SDS011;9930;49.240;8.548;2023-12-29T04:59:05;3.25;;;2.95;;
19566;SDS011;9930;49.240;8.548;2023-12-29T05:01:32;2.88;;;2.67;;
19566;SDS011;9930;49.240;8.548;2023-12-29T05:03:58;3.25;;;3.05;;
19566;SDS011;9930;49.240;8.548;2023-12-29T05:06:24;3.50;;;3.20;;
19566;SDS011;9930;49.240;8.548;2023-12-29T05:08:53;3.25;;;2.95;;
19566;SDS011;9930;49.240;8.548;2023-12-29T05:11:24;3.22;;;3.00;;
19566;SDS011;9930;49.240;8.548;2023-12-29T05:13:55;2.92;;;2.72;;
19566;SDS011;9930;49.240;8.548;2023-12-29T05:16:25;4.43;;;3.17;;
19566;SDS011;9930;49.240;8.548;2023-12-29T05:18:54;3.40;;;3.10;;
19566;SDS011;9930;49.240;8.548;2023-12-29T05:21:23;3.30;;;3.00;;
19566;SDS011;9930;49.240;8.548;2023-12-29T05:23:56;3.28;;;2.97;;
19566;SDS011;9930;49.240;8.548;2023-12-29T05:26:24;3.40;;;3.20;;
19566;SDS011;9930;49.240;8.548;2023-12-29T05:28:54;3.72;;;3.42;;
19566;SDS011;9930;49.240;8.548;2023-12-29T05:31:24;3.38;;;3.13;;
19566;SDS011;9930;49.240;8.548;2023-12-29T05:33:53;3.53;;;3.22;;
19566;SDS011;9930;49.240;8.548;2023-12-29T05:36:24;4.38;;;3.28;;
19566;SDS011;9930;49.240;8.548;2023-12-29T05:38:57;3.40;;;3.15;;
19566;SDS011;9930;49.240;8.548;2023-12-29T05:41:30;3.22;;;3.03;;
19566;SDS011;9930;49.240;8.548;2023-12-29T05:43:58;3.55;;;3.30;;
19566;SDS011;9930;49.240;8.548;2023-12-29T05:46:26;3.50;;;3.20;;
19566;SDS011;9930;49.240;8.548;2023-12-29T05:48:54;3.55;;;3.25;;
19566;SDS011;9930;49.240;8.548;2023-12-29T05:51:23;3.70;;;3.40;;
19566;SDS011;9930;49.240;8.548;2023-12-29T05:53:54;3.88;;;3.58;;
19566;SDS011;9930;49.240;8.548;2023-12-29T05:56:24;4.15;;;3.85;;
19566;SDS011;9930;49.240;8.548;2023-12-29T05:58:56;3.60;;;3.30;;
19566;SDS011;9930;49.240;8.548;2023-12-29T06:01:24;4.47;;;4.07;;
19566;SDS011;9930;49.240;8.548;2023-12-29T06:03:53;3.53;;;3.30;;
19566;SDS011;9930;49.240;8.548;2023-12-29T06:06:21;3.47;;;3.17;;
19566;SDS011;9930;49.240;8.548;2023-12-29T06:08:54;3.88;;;3.58;;
19566;SDS011;9930;49.240;8.548;2023-12-29T06:11:20;3.92;;;3.60;;
19566;SDS011;9930;49.240;8.548;2023-12-29T06:13:54;3.53;;;3.22;;
19566;SDS011;9930;49.240;8.548;2023-12-29T06:16:21;3.78;;;3.47;;
19566;SDS011;9930;49.240;8.548;2023-12-29T06:18:53;8.77;;;7.05;;
19566;SDS011;9930;49.240;8.548;2023-12-29T06:21:24;10.98;;;9.30;;
19566;SDS011;9930;49.240;8.548;2023-12-29T06:23:55;6.65;;;6.05;;
19566;SDS011;9930;49.240;8.548;2023-12-29T06:26:23;5.65;;;5.15;;
19566;SDS011;9930;49.240;8.548;2023-12-29T06:28:53;7.72;;;7.03;;
19566;SDS011;9930;49.240;8.548;2023-12-29T06:31:24;10.70;;;9.80;;
19566;SDS011;9930;49.240;8.548;2023-12-29T06:33:55;12.48;;;11.45;;
19566;SDS011;9930;49.240;8.548;2023-12-29T06:36:24;17.85;;;16.35;;
19566;SDS011;9930;49.240;8.548;2023-12-29T06:38:54;10.98;;;10.07;;
19566;SDS011;9930;49.240;8.548;2023-12-29T06:41:25;8.68;;;7.97;;
19566;SDS011;9930;49.240;8.548;2023-12-29T06:43:55;6.00;;;5.00;;
19566;SDS011;9930;49.240;8.548;2023-12-29T06:46:25;4.78;;;4.32;;
19566;SDS011;9930;49.240;8.548;2023-12-29T06:48:51;4.40;;;4.10;;
19566;SDS011;9930;49.240;8.548;2023-12-29T06:51:23;4.00;;;3.70;;
19566;SDS011;9930;49.240;8.548;2023-12-29T06:53:55;4.18;;;3.80;;
19566;SDS011;9930;49.240;8.548;2023-12-29T06:56:25;3.45;;;3.17;;
19566;SDS011;9930;49.240;8.548;2023-12-29T06:58:55;4.05;;;3.75;;
19566;SDS011;9930;49.240;8.548;2023-12-29T07:01:21;3.90;;;3.60;;
19566;SDS011;9930;49.240;8.548;2023-12-29T07:03:58;3.97;;;3.67;;
19566;SDS011;9930;49.240;8.548;2023-12-29T07:06:26;3.60;;;3.30;;
19566;SDS011;9930;49.240;8.548;2023-12-29T07:08:52;3.88;;;3.47;;
19566;SDS011;9930;49.240;8.548;2023-12-29T07:11:18;4.13;;;3.83;;
19566;SDS011;9930;49.240;8.548;2023-12-29T07:13:54;3.90;;;3.60;;
19566;SDS011;9930;49.240;8.548;2023-12-29T07:16:25;5.38;;;4.97;;
19566;SDS011;9930;49.240;8.548;2023-12-29T07:18:55;5.10;;;4.70;;
19566;SDS011;9930;49.240;8.548;2023-12-29T07:21:25;5.10;;;4.57;;
19566;SDS011;9930;49.240;8.548;2023-12-29T07:23:51;4.68;;;4.18;;
19566;SDS011;9930;49.240;8.548;2023-12-29T07:26:22;4.53;;;4.13;;
19566;SDS011;9930;49.240;8.548;2023-12-29T07:28:54;4.25;;;3.92;;
19566;SDS011;9930;49.240;8.548;2023-12-29T07:31:24;3.85;;;3.55;;
19566;SDS011;9930;49.240;8.548;2023-12-29T07:33:55;3.88;;;3.58;;
19566;SDS011;9930;49.240;8.548;2023-12-29T07:36:21;4.30;;;4.00;;
19566;SDS011;9930;49.240;8.548;2023-12-29T07:38:54;4.20;;;3.90;;
19566;SDS011;9930;49.240;8.548;2023-12-29T07:41:25;4.18;;;3.78;;
19566;SDS011;9930;49.240;8.548;2023-12-29T07:43:55;4.38;;;3.97;;
19566;SDS011;9930;49.240;8.548;2023-12-29T07:46:26;4.05;;;3.70;;
19566;SDS011;9930;49.240;8.548;2023-12-29T07:48:52;4.20;;;3.90;;
19566;SDS011;9930;49.240;8.548;2023-12-29T07:51:18;3.92;;;3.60;;
19566;SDS011;9930;49.240;8.548;2023-12-29T07:53:48;3.85;;;3.50;;
19566;SDS011;9930;49.240;8.548;2023-12-29T07:56:26;3.90;;;3.60;;
19566;SDS011;9930;49.240;8.548;2023-12-29T07:58:52;3.90;;;3.60;;
19566;SDS011;9930;49.240;8.548;2023-12-29T08:01:18;4.13;;;3.80;;
19566;SDS011;9930;49.240;8.548;2023-12-29T08:03:43;3.85;;;3.55;;
19566;SDS011;9930;49.240;8.548;2023-12-29T08:06:09;3.97;;;3.67;;
19566;SDS011;9930;49.240;8.548;2023-12-29T08:08:35;4.00;;;3.60;;
19566;SDS011;9930;49.240;8.548;2023-12-29T08:11:03;3.58;;;3.28;;
19566;SDS011;9930;49.240;8.548;2023-12-29T08:13:31;3.88;;;3.55;;
19566;SDS011;9930;49.240;8.548;2023-12-29T08:15:56;4.40;;;3.70;;
19566;SDS011;9930;49.240;8.548;2023-12-29T08:18:24;4.53;;;4.13;;
19566;SDS011;9930;49.240;8.548;2023-12-29T08:20:54;4.28;;;3.88;;
19566;SDS011;9930;49.240;8.548;2023-12-29T08:23:28;4.70;;;4.22;;
19566;SDS011;9930;49.240;8.548;2023-12-29T08:25:57;4.30;;;3.90;;
19566;SDS011;9930;49.240;8.548;2023-12-29T08:28:25;9.05;;;7.70;;
19566;SDS011;9930;49.240;8.548;2023-12-29T08:30:57;7.63;;;6.93;;
19566;SDS011;9930;49.240;8.548;2023-12-29T08:33:25;11.50;;;10.45;;
19566;SDS011;9930;49.240;8.548;2023-12-29T08:35:55;18.42;;;16.15;;
19566;SDS011;9930;49.240;8.548;2023-12-29T08:38:25;12.02;;;10.82;;
19566;SDS011;9930;49.240;8.548;2023-12-29T08:40:54;18.35;;;16.08;;
19566;SDS011;9930;49.240;8.548;2023-12-29T08:43:25;16.75;;;15.07;;
19566;SDS011;9930;49.240;8.548;2023-12-29T08:45:55;12.07;;;10.88;;
19566;SDS011;9930;49.240;8.548;2023-12-29T08:48:25;15.57;;;14.00;;
19566;SDS011;9930;49.240;8.548;2023-12-29T08:50:53;11.15;;;10.05;;
19566;SDS011;9930;49.240;8.548;2023-12-29T08:53:28;9.95;;;9.05;;
19566;SDS011;9930;49.240;8.548;2023-12-29T08:55:58;11.85;;;10.95;;
19566;SDS011;9930;49.240;8.548;2023-12-29T08:58:26;8.15;;;7.45;;
19566;SDS011;9930;49.240;8.548;2023-12-29T09:00:54;5.25;;;4.85;;
19566;SDS011;9930;49.240;8.548;2023-12-29T09:03:25;4.30;;;4.00;;
19566;SDS011;9930;49.240;8.548;2023-12-29T09:05:54;3.88;;;3.58;;
19566;SDS011;9930;49.240;8.548;2023-12-29T09:08:24;4.00;;;3.70;;
19566;SDS011;9930;49.240;8.548;2023-12-29T09:10:55;3.38;;;3.10;;
19566;SDS011;9930;49.240;8.548;2023-12-29T09:13:25;3.70;;;3.40;;
19566;SDS011;9930;49.240;8.548;2023-12-29T09:15:54;3.25;;;2.95;;
19566;SDS011;9930;49.240;8.548;2023-12-29T09:18:24;5.40;;;4.32;;
19566;SDS011;9930;49.240;8.548;2023-12-29T09:20:54;4.13;;;3.72;;
19566;SDS011;9930;49.240;8.548;2023-12-29T09:23:25;4.20;;;3.63;;
19566;SDS011;9930;49.240;8.548;2023-12-29T09:25:55;2.90;;;2.70;;
19566;SDS011;9930;49.240;8.548;2023-12-29T09:28:24;3.33;;;3.13;;
19566;SDS011;9930;49.240;8.548;2023-12-29T09:30:55;4.35;;;3.55;;
19566;SDS011;9930;49.240;8.548;2023-12-29T09:33:25;3.72;;;3.42;;
19566;SDS011;9930;49.240;8.548;2023-12-29T09:35:54;3.10;;;2.83;;
19566;SDS011;9930;49.240;8.548;2023-12-29T09:38:24;3.10;;;2.90;;
19566;SDS011;9930;49.240;8.548;2023-12-29T09:40:55;3.30;;;3.00;;
19566;SDS011;9930;49.240;8.548;2023-12-29T09:43:31;2.67;;;2.47;;
19566;SDS011;9930;49.240;8.548;2023-12-29T09:46:04;3.00;;;2.72;;
19566;SDS011;9930;49.240;8.548;2023-12-29T09:48:37;2.83;;;2.63;;
19566;SDS011;9930;49.240;8.548;2023-12-29T09:51:04;2.92;;;2.70;;
19566;SDS011;9930;49.240;8.548;2023-12-29T09:53:31;3.40;;;2.70;;
19566;SDS011;9930;49.240;8.548;2023-12-29T09:56:02;3.22;;;2.78;;
19566;SDS011;9930;49.240;8.548;2023-12-29T09:58:32;2.60;;;2.40;;
19566;SDS011;9930;49.240;8.548;2023-12-29T10:01:03;2.88;;;2.67;;
19566;SDS011;9930;49.240;8.548;2023-12-29T10:03:32;2.83;;;2.60;;
19566;SDS011;9930;49.240;8.548;2023-12-29T10:06:03;2.85;;;2.65;;
19566;SDS011;9930;49.240;8.548;2023-12-29T10:08:33;3.15;;;2.88;;
19566;SDS011;9930;49.240;8.548;2023-12-29T10:11:01;2.70;;;2.50;;
19566;SDS011;9930;49.240;8.548;2023-12-29T10:13:30;2.78;;;2.58;;
19566;SDS011;9930;49.240;8.548;2023-12-29T10:16:04;2.80;;;2.60;;
19566;SDS011;9930;49.240;8.548;2023-12-29T10:22:01;2.75;;;2.55;;
19566;SDS011;9930;49.240;8.548;2023-12-29T10:24:39;2.63;;;2.42;;
19566;SDS011;9930;49.240;8.548;2023-12-29T10:27:07;2.35;;;2.17;;
19566;SDS011;9930;49.240;8.548;2023-12-29T10:29:35;2.45;;;2.25;;
19566;SDS011;9930;49.240;8.548;2023-12-29T10:32:06;2.60;;;2.40;;
19566;SDS011;9930;49.240;8.548;2023-12-29T10:34:32;2.70;;;2.50;;
19566;SDS011;9930;49.240;8.548;2023-12-29T10:37:00;2.50;;;2.30;;
19566;SDS011;9930;49.240;8.548;2023-12-29T10:39:40;2.45;;;2.17;;
19566;SDS011;9930;49.240;8.548;2023-12-29T10:42:22;2.30;;;2.10;;
19566;SDS011;9930;49.240;8.548;2023-12-29T10:45:10;2.20;;;2.10;;
19566;SDS011;9930;49.240;8.548;2023-12-29T10:47:35;2.35;;;2.15;;
19566;SDS011;9930;49.240;8.548;2023-12-29T10:50:02;2.78;;;2.40;;
19566;SDS011;9930;49.240;8.548;2023-12-29T10:52:31;2.28;;;2.17;;
19566;SDS011;9930;49.240;8.548;2023-12-29T10:55:05;2.53;;;2.33;;
19566;SDS011;9930;49.240;8.548;2023-12-29T10:57:36;3.47;;;3.17;;
19566;SDS011;9930;49.240;8.548;2023-12-29T11:00:03;6.10;;;5.50;;
19566;SDS011;9930;49.240;8.548;2023-12-29T11:02:33;4.03;;;3.60;;
19566;SDS011;9930;49.240;8.548;2023-12-29T11:05:03;7.43;;;6.72;;
19566;SDS011;9930;49.240;8.548;2023-12-29T11:07:39;5.00;;;4.60;;
19566;SDS011;9930;49.240;8.548;2023-12-29T11:10:07;9.82;;;8.93;;
19566;SDS011;9930;49.240;8.548;2023-12-29T11:12:37;8.13;;;7.43;;
19566;SDS011;9930;49.240;8.548;2023-12-29T11:15:05;6.60;;;6.10;;
19566;SDS011;9930;49.240;8.548;2023-12-29T11:17:34;4.13;;;3.83;;
19566;SDS011;9930;49.240;8.548;2023-12-29T11:20:05;3.90;;;3.63;;
19566;SDS011;9930;49.240;8.548;2023-12-29T11:22:31;2.90;;;2.70;;
19566;SDS011;9930;49.240;8.548;2023-12-29T11:25:02;2.50;;;2.30;;
19566;SDS011;9930;49.240;8.548;2023-12-29T11:27:32;2.28;;;2.08;;
19566;SDS011;9930;49.240;8.548;2023-12-29T11:29:59;2.10;;;2.00;;
19566;SDS011;9930;49.240;8.548;2023-12-29T11:35:32;1.73;;;1.63;;
19566;SDS011;9930;49.240;8.548;2023-12-29T11:44:29;2.05;;;1.67;;
19566;SDS011;9930;49.240;8.548;2023-12-29T11:46:56;1.70;;;1.60;;
19566;SDS011;9930;49.240;8.548;2023-12-29T11:49:25;1.95;;;1.73;;
19566;SDS011;9930;49.240;8.548;2023-12-29T11:51:54;1.85;;;1.63;;
19566;SDS011;9930;49.240;8.548;2023-12-29T11:54:26;1.75;;;1.65;;
19566;SDS011;9930;49.240;8.548;2023-12-29T11:56:55;1.75;;;1.65;;
19566;SDS011;9930;49.240;8.548;2023-12-29T11:59:25;1.50;;;1.40;;
19566;SDS011;9930;49.240;8.548;2023-12-29T12:01:53;1.70;;;1.60;;
19566;SDS011;9930;49.240;8.548;2023-12-29T12:04:34;1.92;;;1.50;;
19566;SDS011;9930;49.240;8.548;2023-12-29T12:10:28;1.77;;;1.67;;
19566;SDS011;9930;49.240;8.548;2023-12-29T12:12:52;1.60;;;1.50;;
19566;SDS011;9930;49.240;8.548;2023-12-29T12:17:55;1.50;;;1.40;;
19566;SDS011;9930;49.240;8.548;2023-12-29T12:20:32;1.67;;;1.58;;
19566;SDS011;9930;49.240;8.548;2023-12-29T12:23:00;1.98;;;1.70;;
19566;SDS011;9930;49.240;8.548;2023-12-29T12:25:29;1.70;;;1.60;;
19566;SDS011;9930;49.240;8.548;2023-12-29T12:27:59;1.95;;;1.75;;
19566;SDS011;9930;49.240;8.548;2023-12-29T12:30:30;1.80;;;1.70;;
19566;SDS011;9930;49.240;8.548;2023-12-29T12:33:00;1.60;;;1.50;;
19566;SDS011;9930;49.240;8.548;2023-12-29T12:35:28;1.70;;;1.60;;
19566;SDS011;9930;49.240;8.548;2023-12-29T12:40:55;1.88;;;1.65;;
19566;SDS011;9930;49.240;8.548;2023-12-29T12:43:23;1.98;;;1.88;;
19566;SDS011;9930;49.240;8.548;2023-12-29T12:45:54;1.92;;;1.73;;
19566;SDS011;9930;49.240;8.548;2023-12-29T12:48:44;2.08;;;1.80;;
19566;SDS011;9930;49.240;8.548;2023-12-29T12:51:11;1.73;;;1.63;;
19566;SDS011;9930;49.240;8.548;2023-12-29T12:53:40;1.80;;;1.70;;
19566;SDS011;9930;49.240;8.548;2023-12-29T12:56:07;1.98;;;1.75;;
19566;SDS011;9930;49.240;8.548;2023-12-29T12:58:34;2.10;;;1.90;;
19566;SDS011;9930;49.240;8.548;2023-12-29T13:01:03;2.00;;;1.90;;
19566;SDS011;9930;49.240;8.548;2023-12-29T13:03:29;1.92;;;1.83;;
19566;SDS011;9930;49.240;8.548;2023-12-29T13:05:57;1.58;;;1.48;;
19566;SDS011;9930;49.240;8.548;2023-12-29T13:08:25;1.85;;;1.75;;
19566;SDS011;9930;49.240;8.548;2023-12-29T13:10:53;2.40;;;2.20;;
19566;SDS011;9930;49.240;8.548;2023-12-29T13:13:23;1.80;;;1.70;;
19566;SDS011;9930;49.240;8.548;2023-12-29T13:16:03;2.15;;;1.90;;
19566;SDS011;9930;49.240;8.548;2023-12-29T13:18:30;2.00;;;1.90;;
19566;SDS011;9930;49.240;8.548;2023-12-29T13:21:00;1.92;;;1.83;;
19566;SDS011;9930;49.240;8.548;2023-12-29T13:23:28;2.10;;;1.90;;
19566;SDS011;9930;49.240;8.548;2023-12-29T13:25:54;2.20;;;2.00;;
19566;SDS011;9930;49.240;8.548;2023-12-29T13:28:24;2.55;;;1.80;;
19566;SDS011;9930;49.240;8.548;2023-12-29T13:30:54;1.90;;;1.80;;
19566;SDS011;9930;49.240;8.548;2023-12-29T13:33:27;2.20;;;2.00;;
19566;SDS011;9930;49.240;8.548;2023-12-29T13:38:58;2.10;;;1.90;;
19566;SDS011;9930;49.240;8.548;2023-12-29T13:41:33;2.45;;;1.80;;
19566;SDS011;9930;49.240;8.548;2023-12-29T13:44:01;1.70;;;1.60;;
19566;SDS011;9930;49.240;8.548;2023-12-29T13:46:28;1.70;;;1.60;;
19566;SDS011;9930;49.240;8.548;2023-12-29T13:48:55;1.73;;;1.63;;
19566;SDS011;9930;49.240;8.548;2023-12-29T13:51:23;1.85;;;1.75;;
19566;SDS011;9930;49.240;8.548;2023-12-29T13:54:01;1.60;;;1.50;;
19566;SDS011;9930;49.240;8.548;2023-12-29T13:56:28;1.65;;;1.55;;
19566;SDS011;9930;49.240;8.548;2023-12-29T13:58:56;1.80;;;1.70;;
19566;SDS011;9930;49.240;8.548;2023-12-29T14:01:23;1.55;;;1.45;;
19566;SDS011;9930;49.240;8.548;2023-12-29T14:03:58;1.70;;;1.60;;
19566;SDS011;9930;49.240;8.548;2023-12-29T14:06:43;1.80;;;1.70;;
19566;SDS011;9930;49.240;8.548;2023-12-29T14:09:26;2.00;;;1.90;;
19566;SDS011;9930;49.240;8.548;2023-12-29T14:11:53;3.08;;;2.88;;
19566;SDS011;9930;49.240;8.548;2023-12-29T14:14:22;2.47;;;2.28;;
19566;SDS011;9930;49.240;8.548;2023-12-29T14:16:52;2.25;;;2.05;;
19566;SDS011;9930;49.240;8.548;2023-12-29T14:19:19;2.15;;;2.05;;
19566;SDS011;9930;49.240;8.548;2023-12-29T14:21:54;2.40;;;2.20;;
19566;SDS011;9930;49.240;8.548;2023-12-29T14:24:21;2.15;;;2.00;;
19566;SDS011;9930;49.240;8.548;2023-12-29T14:26:57;2.00;;;1.90;;
19566;SDS011;9930;49.240;8.548;2023-12-29T14:29:23;1.95;;;1.85;;
19566;SDS011;9930;49.240;8.548;2023-12-29T14:31:53;2.35;;;2.10;;
19566;SDS011;9930;49.240;8.548;2023-12-29T14:34:25;2.00;;;1.80;;
19566;SDS011;9930;49.240;8.548;2023-12-29T14:36:53;1.90;;;1.80;;
19566;SDS011;9930;49.240;8.548;2023-12-29T14:39:25;2.13;;;1.80;;
19566;SDS011;9930;49.240;8.548;2023-12-29T14:41:56;2.45;;;2.25;;
19566;SDS011;9930;49.240;8.548;2023-12-29T14:44:24;2.50;;;2.30;;
19566;SDS011;9930;49.240;8.548;2023-12-29T14:46:52;2.08;;;1.88;;
19566;SDS011;9930;49.240;8.548;2023-12-29T14:49:18;2.00;;;1.90;;
19566;SDS011;9930;49.240;8.548;2023-12-29T14:51:46;1.83;;;1.70;;
19566;SDS011;9930;49.240;8.548;2023-12-29T14:54:14;1.98;;;1.80;;
19566;SDS011;9930;49.240;8.548;2023-12-29T14:56:42;1.95;;;1.80;;
19566;SDS011;9930;49.240;8.548;2023-12-29T14:59:07;1.90;;;1.80;;
19566;SDS011;9930;49.240;8.548;2023-12-29T15:01:35;2.55;;;2.05;;
19566;SDS011;9930;49.240;8.548;2023-12-29T15:04:06;1.85;;;1.60;;
19566;SDS011;9930;49.240;8.548;2023-12-29T15:06:31;1.70;;;1.60;;
19566;SDS011;9930;49.240;8.548;2023-12-29T15:08:59;1.70;;;1.60;;
19566;SDS011;9930;49.240;8.548;2023-12-29T15:11:25;2.72;;;2.05;;
19566;SDS011;9930;49.240;8.548;2023-12-29T15:13:54;2.28;;;2.00;;
19566;SDS011;9930;49.240;8.548;2023-12-29T15:16:25;2.00;;;1.88;;
19566;SDS011;9930;49.240;8.548;2023-12-29T15:18:55;2.45;;;2.25;;
19566;SDS011;9930;49.240;8.548;2023-12-29T15:21:25;2.90;;;2.40;;
19566;SDS011;9930;49.240;8.548;2023-12-29T15:23:54;2.38;;;2.17;;
19566;SDS011;9930;49.240;8.548;2023-12-29T15:26:25;2.67;;;2.45;;
19566;SDS011;9930;49.240;8.548;2023-12-29T15:28:53;1.83;;;1.73;;
19566;SDS011;9930;49.240;8.548;2023-12-29T15:31:25;1.90;;;1.80;;
19566;SDS011;9930;49.240;8.548;2023-12-29T15:33:54;2.38;;;2.03;;
19566;SDS011;9930;49.240;8.548;2023-12-29T15:36:24;2.30;;;2.10;;
19566;SDS011;9930;49.240;8.548;2023-12-29T15:38:53;2.22;;;2.00;;
19566;SDS011;9930;49.240;8.548;2023-12-29T15:41:25;2.13;;;2.00;;
19566;SDS011;9930;49.240;8.548;2023-12-29T15:43:54;1.92;;;1.80;;